createdAt,value
2023-01-04T00:00:18.331Z,11.07
2023-01-04T00:03:03.711Z,9.05
2023-01-04T00:05:49.240Z,9.97
2023-01-04T00:08:34.935Z,9.17
2023-01-04T00:11:21.847Z,8.82
2023-01-04T00:14:07.219Z,9.67
2023-01-04T00:16:52.945Z,8.33
2023-01-04T00:19:38.093Z,9.47
2023-01-04T00:22:23.632Z,9.23
2023-01-04T00:25:09.466Z,9.40
2023-01-04T00:27:55.055Z,9.45
2023-01-04T00:30:40.814Z,9.00
2023-01-04T00:33:26.908Z,9.13
2023-01-04T00:36:14.018Z,9.53
2023-01-04T00:39:14.888Z,10.37
2023-01-04T00:42:05.313Z,9.17
2023-01-04T00:44:50.774Z,9.60
2023-01-04T00:47:36.224Z,10.00
2023-01-04T00:50:21.745Z,9.50
2023-01-04T00:53:07.240Z,9.67
2023-01-04T00:55:52.676Z,9.30
2023-01-04T00:58:38.231Z,8.83
2023-01-04T01:01:24.527Z,9.40
2023-01-04T01:04:14.907Z,8.97
2023-01-04T01:07:00.091Z,9.18
2023-01-04T01:09:45.568Z,9.13
2023-01-04T01:12:31.200Z,8.93
2023-01-04T01:15:16.705Z,8.93
2023-01-04T01:18:02.201Z,9.50
2023-01-04T01:20:47.826Z,10.17
2023-01-04T01:23:33.941Z,9.30
2023-01-04T01:26:21.217Z,9.90
2023-01-04T01:29:06.822Z,8.97
2023-01-04T01:31:52.492Z,9.30
2023-01-04T01:34:37.747Z,10.07
2023-01-04T01:37:23.167Z,10.00
2023-01-04T01:40:09.390Z,10.52
2023-01-04T01:42:54.986Z,9.02
2023-01-04T01:45:40.312Z,10.70
2023-01-04T01:48:29.240Z,11.17
2023-01-04T01:51:16.716Z,9.25
2023-01-04T01:54:07.157Z,10.70
2023-01-04T01:56:53.867Z,9.90
2023-01-04T01:59:41.794Z,10.07
2023-01-04T02:02:27.278Z,11.30
2023-01-04T02:05:13.945Z,9.70
2023-01-04T02:08:00.174Z,10.48
2023-01-04T02:10:45.596Z,10.53
2023-01-04T02:13:52.763Z,9.43
2023-01-04T02:16:56.757Z,9.33
2023-01-04T02:19:50.925Z,10.07
2023-01-04T02:22:51.218Z,9.75
2023-01-04T02:25:48.576Z,10.18
2023-01-04T02:28:47.253Z,10.93
2023-01-04T02:31:51.383Z,11.10
2023-01-04T02:34:39.245Z,10.80
2023-01-04T02:37:56.196Z,10.18
2023-01-04T02:40:52.993Z,11.00
2023-01-04T02:44:17.341Z,11.50
2023-01-04T02:47:12.873Z,10.75
2023-01-04T02:50:30.612Z,10.30
2023-01-04T02:53:22.741Z,11.27
2023-01-04T02:56:53.182Z,11.23
2023-01-04T02:59:47.649Z,11.53
2023-01-04T03:03:29.969Z,12.65
2023-01-04T03:06:30.185Z,10.27
2023-01-04T03:09:23.403Z,11.87
2023-01-04T03:12:33.018Z,11.37
2023-01-04T03:15:30.091Z,11.10
2023-01-04T03:18:29.426Z,10.87
2023-01-04T03:21:16.797Z,11.13
2023-01-04T03:24:23.207Z,10.82
2023-01-04T03:27:27.772Z,10.57
2023-01-04T03:30:34.356Z,10.23
2023-01-04T03:33:38.762Z,11.00
2023-01-04T03:36:31.643Z,10.20
2023-01-04T03:39:58.523Z,11.43
2023-01-04T03:43:23.960Z,9.90
2023-01-04T03:46:44.355Z,10.20
2023-01-04T03:49:37.646Z,11.83
2023-01-04T03:52:27.029Z,10.53
2023-01-04T03:55:14.908Z,10.83
2023-01-04T03:58:00.611Z,10.93
2023-01-04T04:00:47.572Z,12.00
2023-01-04T04:03:51.625Z,12.03
2023-01-04T04:06:55.777Z,11.32
2023-01-04T04:09:41.197Z,11.50
2023-01-04T04:12:26.816Z,11.83
2023-01-04T04:15:13.671Z,12.67
2023-01-04T04:17:59.262Z,14.73
2023-01-04T04:20:44.842Z,14.80
2023-01-04T04:23:30.578Z,14.53
2023-01-04T04:26:16.060Z,12.27
2023-01-04T04:29:01.342Z,12.57
2023-01-04T04:31:47.404Z,12.80
2023-01-04T04:34:32.937Z,11.93
2023-01-04T04:37:18.106Z,13.23
2023-01-04T04:40:07.138Z,11.53
2023-01-04T04:42:52.658Z,11.70
2023-01-04T04:45:38.338Z,12.73
2023-01-04T04:48:23.776Z,12.67
2023-01-04T04:51:09.308Z,11.17
2023-01-04T04:53:54.819Z,12.70
2023-01-04T04:56:40.145Z,11.33
2023-01-04T04:59:25.996Z,10.93
2023-01-04T05:02:11.784Z,9.90
2023-01-04T05:04:57.312Z,9.07
2023-01-04T05:07:42.829Z,8.23
2023-01-04T05:10:28.554Z,8.67
2023-01-04T05:13:14.156Z,8.20
2023-01-04T05:15:59.730Z,8.63
2023-01-04T05:18:44.907Z,7.60
2023-01-04T05:21:30.325Z,7.97
2023-01-04T05:24:15.860Z,8.20
2023-01-04T05:27:01.617Z,7.83
2023-01-04T05:30:05.658Z,7.87
2023-01-04T05:32:50.939Z,8.07
2023-01-04T05:35:37.047Z,9.23
2023-01-04T05:38:23.213Z,8.13
2023-01-04T05:41:28.794Z,7.70
2023-01-04T05:44:14.143Z,7.57
2023-01-04T05:46:59.694Z,8.53
2023-01-04T05:49:45.274Z,8.63
2023-01-04T05:52:31.356Z,7.57
2023-01-04T05:55:17.263Z,8.57
2023-01-04T05:58:03.336Z,9.07
2023-01-04T06:00:48.439Z,8.23
2023-01-04T06:03:34.028Z,8.07
2023-01-04T06:06:19.500Z,7.93
2023-01-04T06:09:05.033Z,7.20
2023-01-04T06:11:50.834Z,7.67
2023-01-04T06:14:36.655Z,7.50
2023-01-04T06:17:22.075Z,7.00
2023-01-04T06:20:09.657Z,7.27
2023-01-04T06:22:54.854Z,6.73
2023-01-04T06:25:40.599Z,7.30
2023-01-04T06:28:26.220Z,7.00
2023-01-04T06:31:12.532Z,7.60
2023-01-04T06:33:58.100Z,5.97
2023-01-04T06:36:43.578Z,6.57
2023-01-04T06:39:28.834Z,6.03
2023-01-04T06:42:34.577Z,6.00
2023-01-04T06:45:19.940Z,6.20
2023-01-04T06:48:09.122Z,6.57
2023-01-04T06:50:54.921Z,6.07
2023-01-04T06:53:40.627Z,6.10
2023-01-04T06:56:26.060Z,6.50
2023-01-04T06:59:11.551Z,6.00
2023-01-04T07:01:56.845Z,5.80
2023-01-04T07:04:43.455Z,5.37
2023-01-04T07:07:28.835Z,5.80
2023-01-04T07:10:14.402Z,6.93
2023-01-04T07:13:00.192Z,6.20
2023-01-04T07:15:45.578Z,6.33
2023-01-04T07:18:31.162Z,6.50
2023-01-04T07:21:16.603Z,7.63
2023-01-04T07:24:02.258Z,7.57
2023-01-04T07:26:47.683Z,7.60
2023-01-04T07:29:33.249Z,7.17
2023-01-04T07:32:18.979Z,7.63
2023-01-04T07:35:04.636Z,6.80
2023-01-04T07:37:57.533Z,6.33
2023-01-04T07:40:56.134Z,6.57
2023-01-04T07:43:42.608Z,6.80
2023-01-04T07:46:28.441Z,6.80
2023-01-04T07:49:17.908Z,6.00
2023-01-04T07:52:03.920Z,5.70
2023-01-04T07:54:49.130Z,6.33
2023-01-04T07:57:34.713Z,5.13
2023-01-04T08:00:20.460Z,5.10
2023-01-04T08:03:05.820Z,5.57
2023-01-04T08:05:51.445Z,6.20
2023-01-04T08:08:36.870Z,5.93
2023-01-04T08:11:23.351Z,5.60
2023-01-04T08:14:08.506Z,6.40
2023-01-04T08:16:53.823Z,5.77
2023-01-04T08:19:39.323Z,5.40
2023-01-04T08:22:24.917Z,5.40
2023-01-04T08:25:10.782Z,5.50
2023-01-04T08:27:56.000Z,4.63
2023-01-04T08:30:41.651Z,4.63
2023-01-04T08:33:27.023Z,5.10
2023-01-04T08:36:27.009Z,5.20
2023-01-04T08:39:13.601Z,5.43
2023-01-04T08:42:07.567Z,4.70
2023-01-04T08:45:01.858Z,3.57
2023-01-04T08:47:47.925Z,4.00
2023-01-04T08:50:33.302Z,3.80
2023-01-04T08:53:18.962Z,3.73
2023-01-04T08:56:05.060Z,3.30
2023-01-04T08:58:50.770Z,3.67
2023-01-04T09:01:36.475Z,3.23
2023-01-04T09:04:21.954Z,4.00
2023-01-04T09:07:07.610Z,3.60
2023-01-04T09:09:53.129Z,3.60
2023-01-04T09:12:38.783Z,3.43
2023-01-04T09:15:24.531Z,3.60
2023-01-04T09:18:31.065Z,3.70
2023-01-04T09:21:20.333Z,3.90
2023-01-04T09:24:06.092Z,3.97
2023-01-04T09:26:51.605Z,4.00
2023-01-04T09:29:36.786Z,3.33
2023-01-04T09:32:22.605Z,4.13
2023-01-04T09:35:08.327Z,3.50
2023-01-04T09:37:54.827Z,3.80
2023-01-04T09:40:47.628Z,3.00
2023-01-04T09:43:40.914Z,3.10
2023-01-04T09:46:34.811Z,3.80
2023-01-04T09:49:36.942Z,3.58
2023-01-04T09:52:27.743Z,2.92
2023-01-04T09:55:37.786Z,3.38
2023-01-04T09:58:33.082Z,3.63
2023-01-04T10:01:39.777Z,3.45
2023-01-04T10:04:49.962Z,3.30
2023-01-04T10:07:36.153Z,2.80
2023-01-04T10:10:46.280Z,3.20
2023-01-04T10:13:56.182Z,3.40
2023-01-04T10:17:20.383Z,3.45
2023-01-04T10:24:01.840Z,2.50
2023-01-04T10:26:50.371Z,2.70
2023-01-04T10:29:39.723Z,3.15
2023-01-04T10:32:41.457Z,2.95
2023-01-04T10:35:27.647Z,2.60
2023-01-04T10:38:18.025Z,2.80
2023-01-04T10:41:10.934Z,2.95
2023-01-04T10:44:14.126Z,2.60
2023-01-04T10:47:02.831Z,2.60
2023-01-04T10:50:01.652Z,2.78
2023-01-04T10:53:24.175Z,2.80
2023-01-04T10:56:25.327Z,2.78
2023-01-04T10:59:41.799Z,3.00
2023-01-04T11:02:53.426Z,2.38
2023-01-04T11:05:53.127Z,2.63
2023-01-04T11:08:48.055Z,2.72
2023-01-04T11:11:42.140Z,2.85
2023-01-04T11:14:33.409Z,2.67
2023-01-04T11:20:08.342Z,2.80
2023-01-04T11:23:12.908Z,3.00
2023-01-04T11:26:08.789Z,2.65
2023-01-04T11:29:04.412Z,2.78
2023-01-04T11:32:15.962Z,2.77
2023-01-04T11:35:01.651Z,2.83
2023-01-04T11:37:47.223Z,3.13
2023-01-04T11:40:33.394Z,2.90
2023-01-04T11:43:20.829Z,2.85
2023-01-04T11:46:18.393Z,3.25
2023-01-04T11:49:05.804Z,2.85
2023-01-04T11:51:51.047Z,3.20
2023-01-04T11:54:36.787Z,3.10
2023-01-04T11:57:22.344Z,2.90
2023-01-04T12:00:14.096Z,3.03
2023-01-04T12:03:17.797Z,2.80
2023-01-04T12:06:07.622Z,2.80
2023-01-04T12:08:53.282Z,2.60
2023-01-04T12:11:42.543Z,2.50
2023-01-04T12:14:32.545Z,2.63
2023-01-04T12:17:25.980Z,2.72
2023-01-04T12:20:19.128Z,2.30
2023-01-04T12:23:05.845Z,2.50
2023-01-04T12:25:52.667Z,2.38
2023-01-04T12:28:44.390Z,2.53
2023-01-04T12:31:32.037Z,2.55
2023-01-04T12:34:24.109Z,2.00
2023-01-04T12:37:10.857Z,2.13
2023-01-04T12:39:56.122Z,2.58
2023-01-04T12:43:16.979Z,2.20
2023-01-04T12:46:49.095Z,2.13
2023-01-04T12:49:44.055Z,1.98
2023-01-04T12:52:34.785Z,2.30
2023-01-04T12:55:33.801Z,2.30
2023-01-04T12:59:15.495Z,2.10
2023-01-04T13:02:15.598Z,2.10
2023-01-04T13:08:22.918Z,2.92
2023-01-04T13:11:22.708Z,3.05
2023-01-04T13:14:16.825Z,2.70
2023-01-04T13:17:27.079Z,3.00
2023-01-04T13:20:21.154Z,2.70
2023-01-04T13:23:12.879Z,2.78
2023-01-04T13:26:37.105Z,2.70
2023-01-04T13:29:23.573Z,2.88
2023-01-04T13:32:13.870Z,2.95
2023-01-04T13:35:14.718Z,2.92
2023-01-04T13:38:01.157Z,2.65
2023-01-04T13:40:49.502Z,2.60
2023-01-04T13:44:02.889Z,2.08
2023-01-04T13:46:50.323Z,2.58
2023-01-04T13:49:38.575Z,2.53
2023-01-04T13:52:50.535Z,2.70
2023-01-04T13:55:33.627Z,2.80
2023-01-04T13:58:21.306Z,2.90
2023-01-04T14:01:22.174Z,2.92
2023-01-04T14:04:25.053Z,2.95
2023-01-04T14:07:10.525Z,2.80
2023-01-04T14:09:59.266Z,2.70
2023-01-04T14:12:46.705Z,2.80
2023-01-04T14:15:33.877Z,2.53
2023-01-04T14:18:30.114Z,2.50
2023-01-04T14:21:33.304Z,2.75
2023-01-04T14:25:07.945Z,3.35
2023-01-04T14:27:40.662Z,2.83
2023-01-04T14:30:26.359Z,2.88
2023-01-04T14:33:31.870Z,3.08
2023-01-04T14:36:27.041Z,2.72
2023-01-04T14:39:19.027Z,3.05
2023-01-04T14:42:05.163Z,2.75
2023-01-04T14:44:50.784Z,2.75
2023-01-04T14:47:36.244Z,2.90
2023-01-04T14:50:21.767Z,2.83
2023-01-04T14:53:09.676Z,3.10
2023-01-04T14:55:55.299Z,2.70
2023-01-04T14:58:41.401Z,2.58
2023-01-04T15:01:27.312Z,2.83
2023-01-04T15:04:13.236Z,3.28
2023-01-04T15:07:00.262Z,3.30
2023-01-04T15:09:45.579Z,3.10
2023-01-04T15:12:31.087Z,3.30
2023-01-04T15:15:16.617Z,3.20
2023-01-04T15:18:01.832Z,2.90
2023-01-04T15:20:47.387Z,3.25
2023-01-04T15:23:33.023Z,3.20
2023-01-04T15:26:18.551Z,3.08
2023-01-04T15:29:06.708Z,3.10
2023-01-04T15:31:52.093Z,2.90
2023-01-04T15:34:40.720Z,3.10
2023-01-04T15:37:30.245Z,3.05
2023-01-04T15:40:18.139Z,3.33
2023-01-04T15:43:03.725Z,3.42
2023-01-04T15:45:49.026Z,3.70
2023-01-04T15:48:37.770Z,3.60
2023-01-04T15:51:23.511Z,3.33
2023-01-04T15:54:09.141Z,3.63
2023-01-04T15:56:54.594Z,3.88
2023-01-04T15:59:40.365Z,3.83
2023-01-04T16:02:26.174Z,3.95
2023-01-04T16:05:11.957Z,3.92
2023-01-04T16:07:57.366Z,3.85
2023-01-04T16:10:43.059Z,3.45
2023-01-04T16:13:28.537Z,3.30
2023-01-04T16:16:14.992Z,3.55
2023-01-04T16:19:02.021Z,3.60
2023-01-04T16:21:47.607Z,3.33
2023-01-04T16:27:39.360Z,3.60
2023-01-04T16:30:29.751Z,3.40
2023-01-04T16:33:15.485Z,3.47
2023-01-04T16:36:10.609Z,3.58
2023-01-04T16:38:57.290Z,3.30
2023-01-04T16:41:43.140Z,3.70
2023-01-04T16:44:28.416Z,4.00
2023-01-04T16:47:13.793Z,3.53
2023-01-04T16:49:59.181Z,3.72
2023-01-04T16:52:44.965Z,4.38
2023-01-04T16:55:30.492Z,3.40
2023-01-04T16:58:16.073Z,3.22
2023-01-04T17:01:25.810Z,4.00
2023-01-04T17:04:11.815Z,3.25
2023-01-04T17:06:58.383Z,3.17
2023-01-04T17:09:44.061Z,3.70
2023-01-04T17:12:47.179Z,3.38
2023-01-04T17:15:49.445Z,2.60
2023-01-04T17:18:37.262Z,2.78
2023-01-04T17:21:33.922Z,2.88
2023-01-04T17:24:20.336Z,2.65
2023-01-04T17:27:06.080Z,3.25
2023-01-04T17:29:51.357Z,2.85
2023-01-04T17:32:36.948Z,3.20
2023-01-04T17:35:22.467Z,3.10
2023-01-04T17:38:08.330Z,3.50
2023-01-04T17:40:53.647Z,3.53
2023-01-04T17:43:40.432Z,3.40
2023-01-04T17:46:25.679Z,3.67
2023-01-04T17:49:32.126Z,3.38
2023-01-04T17:52:24.377Z,3.85
2023-01-04T17:55:11.135Z,3.90
2023-01-04T17:57:57.142Z,3.67
2023-01-04T18:00:42.832Z,3.42
2023-01-04T18:03:28.418Z,3.42
2023-01-04T18:06:25.258Z,4.13
2023-01-04T18:09:14.321Z,4.60
2023-01-04T18:12:02.576Z,4.78
2023-01-04T18:14:48.273Z,4.28
2023-01-04T18:17:33.744Z,3.83
2023-01-04T18:20:24.751Z,2.60
2023-01-04T18:23:15.045Z,3.88
2023-01-04T18:26:10.890Z,3.97
2023-01-04T18:28:56.391Z,3.53
2023-01-04T18:31:42.063Z,4.05
2023-01-04T18:34:27.636Z,3.65
2023-01-04T18:37:13.740Z,3.67
2023-01-04T18:39:59.358Z,3.90
2023-01-04T18:42:51.370Z,3.60
2023-01-04T18:45:40.613Z,3.72
2023-01-04T18:48:25.976Z,3.53
2023-01-04T18:51:12.965Z,3.30
2023-01-04T18:53:58.680Z,4.30
2023-01-04T18:56:44.109Z,4.07
2023-01-04T18:59:30.238Z,4.00
2023-01-04T19:02:20.005Z,3.97
2023-01-04T19:05:05.574Z,3.80
2023-01-04T19:07:51.245Z,3.60
2023-01-04T19:10:37.002Z,3.42
2023-01-04T19:13:22.365Z,3.80
2023-01-04T19:16:13.198Z,3.60
2023-01-04T19:19:00.110Z,4.40
2023-01-04T19:21:46.370Z,4.13
2023-01-04T19:24:31.810Z,4.25
2023-01-04T19:27:16.847Z,4.40
2023-01-04T19:30:02.449Z,4.60
2023-01-04T19:32:48.170Z,4.13
2023-01-04T19:35:34.067Z,3.75
2023-01-04T19:38:19.636Z,3.88
2023-01-04T19:41:06.246Z,4.43
2023-01-04T19:43:51.840Z,4.10
2023-01-04T19:46:39.468Z,3.78
2023-01-04T19:49:24.849Z,4.22
2023-01-04T19:52:10.406Z,4.38
2023-01-04T19:54:56.150Z,5.80
2023-01-04T19:57:41.523Z,15.10
2023-01-04T20:00:26.836Z,18.48
2023-01-04T20:03:12.345Z,13.23
2023-01-04T20:06:03.644Z,12.45
2023-01-04T20:08:49.291Z,11.52
2023-01-04T20:11:34.754Z,11.00
2023-01-04T20:14:20.577Z,15.98
2023-01-04T20:17:06.615Z,17.02
2023-01-04T20:19:52.088Z,12.07
2023-01-04T20:22:37.730Z,7.82
2023-01-04T20:25:23.452Z,7.05
2023-01-04T20:28:08.725Z,5.50
2023-01-04T20:31:05.705Z,5.25
2023-01-04T20:33:50.844Z,4.65
2023-01-04T20:36:39.515Z,4.70
2023-01-04T20:39:25.003Z,4.50
2023-01-04T20:42:29.312Z,4.88
2023-01-04T20:45:14.699Z,4.13
2023-01-04T20:48:00.141Z,5.18
2023-01-04T20:50:45.712Z,5.40
2023-01-04T20:53:31.362Z,4.75
2023-01-04T20:56:20.237Z,4.50
2023-01-04T20:59:05.516Z,4.50
2023-01-04T21:01:51.217Z,5.05
2023-01-04T21:04:36.689Z,5.50
2023-01-04T21:07:22.261Z,7.57
2023-01-04T21:10:08.005Z,6.07
2023-01-04T21:12:53.242Z,5.43
2023-01-04T21:15:39.899Z,4.45
2023-01-04T21:18:26.240Z,4.88
2023-01-04T21:21:16.827Z,4.75
2023-01-04T21:24:02.233Z,4.60
2023-01-04T21:26:47.476Z,4.90
2023-01-04T21:29:33.086Z,4.35
2023-01-04T21:32:18.879Z,4.00
2023-01-04T21:35:04.771Z,3.80
2023-01-04T21:37:50.354Z,4.00
2023-01-04T21:40:38.426Z,5.05
2023-01-04T21:43:23.975Z,5.25
2023-01-04T21:46:12.692Z,4.25
2023-01-04T21:49:01.494Z,4.57
2023-01-04T21:51:47.178Z,4.22
2023-01-04T21:54:32.643Z,4.68
2023-01-04T21:57:18.214Z,4.55
2023-01-04T22:00:07.703Z,4.78
2023-01-04T22:02:53.265Z,4.93
2023-01-04T22:05:38.836Z,5.00
2023-01-04T22:08:24.290Z,4.40
2023-01-04T22:11:10.831Z,4.53
2023-01-04T22:13:56.546Z,4.80
2023-01-04T22:16:42.313Z,5.03
2023-01-04T22:19:28.491Z,4.38
2023-01-04T22:22:13.909Z,4.05
2023-01-04T22:24:59.152Z,3.63
2023-01-04T22:27:48.616Z,3.45
2023-01-04T22:30:34.063Z,3.30
2023-01-04T22:33:19.995Z,3.22
2023-01-04T22:36:06.298Z,2.50
2023-01-04T22:38:53.455Z,2.67
2023-01-04T22:41:40.170Z,2.50
2023-01-04T22:44:25.782Z,1.90
2023-01-04T22:47:11.169Z,2.20
2023-01-04T22:49:56.749Z,2.10
2023-01-04T22:52:47.355Z,2.58
2023-01-04T22:56:09.328Z,2.40
2023-01-04T22:58:52.050Z,2.50
2023-01-04T23:01:38.965Z,2.60
2023-01-04T23:04:24.141Z,2.25
2023-01-04T23:07:09.434Z,2.17
2023-01-04T23:09:54.943Z,2.50
2023-01-04T23:12:40.558Z,2.65
2023-01-04T23:15:26.211Z,2.40
2023-01-04T23:18:11.445Z,2.75
2023-01-04T23:20:57.163Z,2.50
2023-01-04T23:23:43.178Z,2.40
2023-01-04T23:26:30.519Z,2.80
2023-01-04T23:29:16.002Z,2.63
2023-01-04T23:32:01.380Z,2.95
2023-01-04T23:34:49.568Z,3.30
2023-01-04T23:37:35.565Z,3.30
2023-01-04T23:40:20.968Z,3.72
2023-01-04T23:43:06.532Z,3.72
2023-01-04T23:45:52.427Z,3.22
2023-01-04T23:48:37.659Z,3.22
2023-01-04T23:51:22.891Z,3.22
2023-01-04T23:54:09.073Z,3.40
2023-01-04T23:56:54.943Z,3.17
2023-01-04T23:59:40.232Z,2.65
